Time;durP1;ratioP1;P1;durP2;ratioP2;P2;SDS_P1;SDS_P2;PMS_P1;PMS_P2;Temp;Humidity;BMP_temperature;BMP_pressure;BME280_temperature;BME280_humidity;BME280_pressure;Samples;Min_cycle;Max_cycle;Signal;HPM_P1;HPM_P2
2023/03/01 00:01:10;;;;;;;35.23;26.37;;;;;;;1.47;100.00;96868.09;5029376;28;101761;-61
2023/03/01 00:03:38;;;;;;;33.03;24.87;;;;;;;1.45;100.00;96863.06;5028107;28;105157;-61
2023/03/01 00:06:06;;;;;;;35.27;25.60;;;;;;;1.45;100.00;96863.06;5031850;28;105611;-61
2023/03/01 00:08:34;;;;;;;34.47;25.07;;;;;;;1.45;100.00;96860.44;5028211;28;105597;-61
2023/03/01 00:11:07;;;;;;;37.73;26.70;;;;;;;1.54;100.00;96859.34;5027511;28;105319;-61
2023/03/01 00:13:35;;;;;;;35.03;25.53;;;;;;;1.56;100.00;96861.78;5028124;28;101873;-61
2023/03/01 00:16:04;;;;;;;39.63;27.73;;;;;;;1.57;100.00;96852.91;5028622;28;104585;-61
2023/03/01 00:18:31;;;;;;;36.80;26.67;;;;;;;1.59;100.00;96858.81;5027307;28;105398;-61
2023/03/01 00:20:59;;;;;;;37.20;27.43;;;;;;;1.58;100.00;96860.59;5027879;28;102015;-61
2023/03/01 00:23:27;;;;;;;33.23;26.13;;;;;;;1.57;100.00;96853.75;5027781;28;105606;-61
2023/03/01 00:25:55;;;;;;;33.50;24.90;;;;;;;1.60;100.00;96855.19;5027010;28;105862;-61
2023/03/01 00:28:24;;;;;;;37.97;25.83;;;;;;;1.58;100.00;96858.00;5031145;28;101961;-61
2023/03/01 00:30:52;;;;;;;35.83;25.43;;;;;;;1.63;100.00;96849.56;5027153;28;105714;-61
2023/03/01 00:33:20;;;;;;;32.10;23.57;;;;;;;1.63;100.00;96849.56;5027494;28;101894;-61
2023/03/01 00:35:48;;;;;;;32.97;24.63;;;;;;;1.68;100.00;96852.44;5027732;28;105320;-61
2023/03/01 00:38:15;;;;;;;31.23;23.27;;;;;;;1.65;100.00;96851.00;5027122;28;105691;-62
2023/03/01 00:40:42;;;;;;;37.60;25.00;;;;;;;1.62;100.00;96848.75;5026982;28;101905;-61
2023/03/01 00:43:10;;;;;;;35.80;25.30;;;;;;;1.58;100.00;96846.72;5029325;27;105206;-61
2023/03/01 00:45:39;;;;;;;34.77;25.00;;;;;;;1.59;100.00;96843.09;5030830;28;105810;-61
2023/03/01 00:48:08;;;;;;;31.47;23.07;;;;;;;1.59;100.00;96837.84;5031176;28;101886;-61
2023/03/01 00:50:35;;;;;;;32.47;24.50;;;;;;;1.47;100.00;96834.03;5068552;27;105155;-61
2023/03/01 00:53:04;;;;;;;35.07;25.90;;;;;;;1.58;100.00;96833.59;5033508;28;101894;-61
2023/03/01 00:55:32;;;;;;;32.30;24.33;;;;;;;1.57;100.00;96835.41;5031437;28;105191;-61
2023/03/01 00:57:59;;;;;;;29.07;22.67;;;;;;;1.56;100.00;96832.97;5030292;28;105756;-61
2023/03/01 01:00:27;;;;;;;28.03;21.10;;;;;;;1.49;100.00;96827.63;5030761;28;102080;-61
2023/03/01 01:02:56;;;;;;;23.27;18.87;;;;;;;1.40;100.00;96830.53;5030923;28;105399;-61
2023/03/01 01:05:23;;;;;;;22.60;16.73;;;;;;;1.43;100.00;96825.75;5032057;28;105112;-61
2023/03/01 01:07:50;;;;;;;21.47;16.87;;;;;;;1.52;100.00;96823.81;5065792;27;102082;-61
2023/03/01 01:10:18;;;;;;;22.20;16.07;;;;;;;1.53;100.00;96820.22;5030857;28;105560;-61
2023/03/01 01:12:46;;;;;;;20.03;15.40;;;;;;;1.58;100.00;96820.50;5033513;28;105475;-61
2023/03/01 01:15:16;;;;;;;20.53;15.43;;;;;;;1.64;100.00;96810.06;5030928;28;104409;-61
2023/03/01 01:17:44;;;;;;;18.83;14.73;;;;;;;1.59;100.00;96809.81;5063950;27;105043;-61
2023/03/01 01:20:15;;;;;;;17.77;14.90;;;;;;;1.54;100.00;96811.38;5032564;28;101957;-61
2023/03/01 01:22:42;;;;;;;22.90;16.00;;;;;;;1.69;100.00;96812.16;5064560;27;105640;-61
2023/03/01 01:25:11;;;;;;;20.40;15.03;;;;;;;1.75;100.00;96811.41;5030005;28;105803;-61
2023/03/01 01:27:39;;;;;;;19.87;15.30;;;;;;;1.75;100.00;96801.72;5031146;28;101994;-61
2023/03/01 01:30:08;;;;;;;18.87;14.80;;;;;;;1.76;100.00;96797.31;5066230;27;105581;-61
2023/03/01 01:32:35;;;;;;;17.90;14.77;;;;;;;1.79;100.00;96794.28;5035321;28;105683;-61
2023/03/01 01:35:02;;;;;;;20.67;15.53;;;;;;;1.83;100.00;96793.75;5032528;28;105450;-61
2023/03/01 01:37:32;;;;;;;19.97;15.30;;;;;;;1.80;100.00;96788.06;5029631;28;105495;-61
2023/03/01 01:40:00;;;;;;;21.00;15.47;;;;;;;1.73;100.00;96782.75;5030287;28;101855;-61
2023/03/01 01:42:30;;;;;;;20.63;14.73;;;;;;;1.69;100.00;96781.50;5030391;28;105313;-61
2023/03/01 01:45:33;;;;;;;20.20;14.70;;;;;;;1.57;100.00;96774.28;5066515;27;105087;-61
2023/03/01 01:48:04;;;;;;;21.43;15.60;;;;;;;1.64;100.00;96776.00;5032028;28;102361;-61
2023/03/01 01:50:37;;;;;;;21.93;15.23;;;;;;;1.65;100.00;96779.44;5030409;28;105401;-61
2023/03/01 01:53:12;;;;;;;20.07;14.87;;;;;;;1.67;100.00;96772.19;5031366;28;104060;-61
2023/03/01 01:55:43;;;;;;;21.10;14.87;;;;;;;1.59;100.00;96769.69;5035622;28;101808;-61
2023/03/01 01:58:14;;;;;;;21.10;15.20;;;;;;;1.58;100.00;96774.13;5031383;28;105674;-61
2023/03/01 02:00:42;;;;;;;20.53;14.00;;;;;;;1.66;100.00;96765.31;5030004;28;101724;-61
2023/03/01 02:03:13;;;;;;;19.80;14.97;;;;;;;1.71;100.00;96758.50;5031490;28;102516;-61
2023/03/01 02:05:48;;;;;;;19.37;15.03;;;;;;;1.68;100.00;96752.84;5029617;28;105248;-61
2023/03/01 02:08:20;;;;;;;20.00;14.73;;;;;;;1.62;100.00;96757.03;5030360;28;101917;-61
2023/03/01 02:10:49;;;;;;;18.90;14.93;;;;;;;1.63;100.00;96756.03;5034460;28;102972;-61
2023/03/01 02:13:19;;;;;;;18.83;14.80;;;;;;;1.65;100.00;96754.03;5033113;28;105566;-61
2023/03/01 02:15:46;;;;;;;17.90;14.67;;;;;;;1.65;100.00;96742.75;5032559;28;102057;-61
2023/03/01 02:18:18;;;;;;;18.80;14.43;;;;;;;1.68;100.00;96752.84;5032776;28;103503;-61
2023/03/01 02:20:56;;;;;;;18.10;15.53;;;;;;;1.68;100.00;96742.34;5030029;28;102030;-61
2023/03/01 02:23:25;;;;;;;18.57;15.20;;;;;;;1.58;100.00;96747.13;5063503;27;103847;-61
2023/03/01 02:25:59;;;;;;;21.57;14.60;;;;;;;1.66;100.00;96744.38;5030339;28;105433;-61
2023/03/01 02:28:31;;;;;;;16.40;14.37;;;;;;;1.67;100.00;96741.56;5030148;28;101868;-61
2023/03/01 02:33:48;;;;;;;19.70;14.90;;;;;;;1.55;100.00;96743.06;5030099;28;104615;-61
2023/03/01 02:36:19;;;;;;;19.73;15.20;;;;;;;1.64;100.00;96741.13;5031833;28;101833;-61
2023/03/01 02:38:48;;;;;;;17.40;13.93;;;;;;;1.74;100.00;96746.84;5033324;28;105338;-61
2023/03/01 02:41:18;;;;;;;18.37;14.90;;;;;;;1.72;100.00;96744.44;5033955;28;105912;-61
2023/03/01 02:43:47;;;;;;;17.97;14.37;;;;;;;1.70;100.00;96740.38;5033349;28;105571;-61
2023/03/01 02:46:18;;;;;;;19.07;14.73;;;;;;;1.65;100.00;96740.91;5031434;28;102681;-61
2023/03/01 02:48:49;;;;;;;18.57;15.13;;;;;;;1.64;100.00;96734.06;5031752;28;101937;-59
2023/03/01 02:51:45;;;;;;;19.07;15.23;;;;;;;1.68;100.00;96744.97;5030360;28;105609;-60
2023/03/01 02:54:24;;;;;;;18.57;14.67;;;;;;;1.66;100.00;96739.13;5022236;28;105407;-61
2023/03/01 02:56:52;;;;;;;17.40;14.30;;;;;;;1.68;100.00;96734.50;5029672;28;101827;-61
2023/03/01 02:59:29;;;;;;;19.20;15.03;;;;;;;1.68;100.00;96732.69;5031683;28;105195;-61
2023/03/01 03:01:56;;;;;;;19.67;14.97;;;;;;;1.56;100.00;96726.31;5030645;28;105266;-61
2023/03/01 03:04:23;;;;;;;17.80;14.20;;;;;;;1.48;100.00;96733.50;5034920;28;101908;-61
2023/03/01 03:06:52;;;;;;;18.53;14.47;;;;;;;1.50;100.00;96734.13;5062097;27;105214;-61
2023/03/01 03:09:20;;;;;;;19.23;14.83;;;;;;;1.53;100.00;96725.91;5064358;27;101885;-61
2023/03/01 03:11:47;;;;;;;18.77;15.20;;;;;;;1.51;100.00;96730.50;5030354;28;102923;-61
2023/03/01 03:14:16;;;;;;;19.97;15.00;;;;;;;1.17;100.00;96730.31;5031941;28;104999;-61
2023/03/01 03:16:50;;;;;;;18.13;15.07;;;;;;;1.14;100.00;96728.06;5031997;28;101822;-61
2023/03/01 03:19:19;;;;;;;20.13;15.30;;;;;;;1.20;100.00;96719.50;5030049;28;105556;-61
2023/03/01 03:21:46;;;;;;;18.13;14.30;;;;;;;1.09;100.00;96725.19;5063182;27;105824;-61
2023/03/01 03:24:15;;;;;;;20.23;14.57;;;;;;;1.09;100.00;96719.97;5031545;28;102464;-61
2023/03/01 03:26:52;;;;;;;18.43;14.60;;;;;;;1.03;100.00;96724.09;5034555;28;105565;-61
2023/03/01 03:29:19;;;;;;;19.03;14.73;;;;;;;1.05;100.00;96718.69;5029527;28;102097;-61
2023/03/01 03:31:48;;;;;;;19.10;14.63;;;;;;;1.02;100.00;96721.66;5029146;28;105711;-61
2023/03/01 03:34:17;;;;;;;19.03;14.77;;;;;;;1.00;100.00;96719.22;5030736;28;105660;-61
2023/03/01 03:36:44;;;;;;;18.37;14.63;;;;;;;0.91;100.00;96716.91;5028925;28;101987;-61
2023/03/01 03:39:11;;;;;;;19.50;15.47;;;;;;;0.74;100.00;96715.47;5030787;28;105012;-61
2023/03/01 03:41:41;;;;;;;19.80;15.30;;;;;;;0.82;100.00;96723.25;5029940;27;104661;-61
2023/03/01 03:44:08;;;;;;;19.63;15.03;;;;;;;0.80;100.00;96715.56;5033885;28;101771;-60
2023/03/01 03:46:35;;;;;;;20.67;15.30;;;;;;;0.68;100.00;96719.66;5031726;28;105161;-62
2023/03/01 03:49:06;;;;;;;18.43;14.57;;;;;;;0.71;100.00;96715.84;5030734;28;102182;-61
2023/03/01 03:51:33;;;;;;;19.47;15.17;;;;;;;0.75;100.00;96704.84;5047565;27;105617;-60
2023/03/01 03:54:01;;;;;;;20.27;15.93;;;;;;;0.85;100.00;96701.94;5029290;28;105104;-61
2023/03/01 03:56:31;;;;;;;22.90;15.57;;;;;;;0.81;100.00;96701.47;5064447;27;102057;-61
2023/03/01 03:58:58;;;;;;;19.70;15.70;;;;;;;0.83;100.00;96699.47;5028345;28;105703;-61
2023/03/01 04:01:25;;;;;;;19.93;15.43;;;;;;;0.73;100.00;96704.19;5029042;28;104258;-61
2023/03/01 04:03:54;;;;;;;20.67;16.20;;;;;;;0.57;100.00;96700.97;5030257;28;101831;-61
2023/03/01 04:06:23;;;;;;;19.63;15.53;;;;;;;0.67;100.00;96704.91;5028169;28;105432;-61
2023/03/01 04:08:58;;;;;;;23.73;16.13;;;;;;;0.67;100.00;96689.22;5030804;28;106035;-61
2023/03/01 04:11:28;;;;;;;20.67;15.90;;;;;;;0.73;100.00;96690.31;5029174;28;105328;-61
2023/03/01 04:13:57;;;;;;;20.60;15.43;;;;;;;0.59;100.00;96693.72;5033475;28;102677;-61
2023/03/01 04:16:25;;;;;;;21.83;15.53;;;;;;;0.69;100.00;96700.31;5028024;28;101834;-61
2023/03/01 04:18:56;;;;;;;22.10;16.30;;;;;;;0.64;100.00;96702.69;5029066;27;102606;-61
2023/03/01 04:21:25;;;;;;;19.83;15.47;;;;;;;0.59;100.00;96697.16;5027757;28;105577;-61
2023/03/01 04:23:52;;;;;;;20.73;16.50;;;;;;;0.60;100.00;96698.00;5029718;28;101903;-61
2023/03/01 04:26:20;;;;;;;19.20;15.97;;;;;;;0.70;100.00;96690.66;5028844;28;105436;-61
2023/03/01 04:28:49;;;;;;;21.60;16.87;;;;;;;0.71;100.00;96700.16;5063474;27;105604;-61
2023/03/01 04:31:20;;;;;;;21.77;16.60;;;;;;;0.71;100.00;96694.91;5031163;28;102025;-61
2023/03/01 04:33:51;;;;;;;20.93;16.03;;;;;;;0.66;100.00;96692.03;5027191;28;105601;-61
2023/03/01 04:36:20;;;;;;;21.33;15.67;;;;;;;0.74;100.00;96702.38;5063353;27;101915;-61
2023/03/01 04:38:50;;;;;;;22.10;16.17;;;;;;;0.63;100.00;96700.22;5062462;27;105566;-61
2023/03/01 04:41:19;;;;;;;22.23;17.27;;;;;;;0.63;100.00;96698.44;5028145;28;105562;-61
2023/03/01 04:43:48;;;;;;;22.97;16.30;;;;;;;0.65;100.00;96690.38;5027696;28;102169;-61
2023/03/01 04:46:21;;;;;;;23.07;17.10;;;;;;;0.66;100.00;96687.59;5030145;28;105760;-61
2023/03/01 04:48:49;;;;;;;21.93;16.40;;;;;;;0.62;100.00;96691.56;5031297;28;105035;-61
2023/03/01 04:51:16;;;;;;;23.97;16.73;;;;;;;0.66;100.00;96681.56;5030449;28;101841;-61
2023/03/01 04:53:45;;;;;;;21.20;16.73;;;;;;;0.49;100.00;96682.72;5031448;28;105447;-61
2023/03/01 04:56:14;;;;;;;20.93;16.03;;;;;;;0.62;100.00;96675.84;5027959;28;101818;-61
2023/03/01 04:58:42;;;;;;;20.60;16.77;;;;;;;0.53;100.00;96676.16;5027311;28;105284;-61
2023/03/01 05:01:17;;;;;;;22.73;16.10;;;;;;;0.60;100.00;96684.91;5029269;28;105911;-61
2023/03/01 05:03:45;;;;;;;21.93;16.33;;;;;;;0.41;100.00;96683.66;5030299;27;101717;-61
2023/03/01 05:06:13;;;;;;;23.87;17.20;;;;;;;0.38;100.00;96673.53;5027306;28;105348;-61
2023/03/01 05:08:42;;;;;;;21.70;16.50;;;;;;;0.28;100.00;96667.75;5027347;28;105385;-61
2023/03/01 05:11:15;;;;;;;21.67;15.80;;;;;;;0.39;100.00;96677.78;5063336;27;101839;-61
2023/03/01 05:13:45;;;;;;;22.37;16.23;;;;;;;0.40;100.00;96681.22;5029183;28;105714;-61
2023/03/01 05:16:12;;;;;;;20.80;16.30;;;;;;;0.52;100.00;96679.75;5033134;28;105431;-61
2023/03/01 05:18:43;;;;;;;23.13;16.67;;;;;;;0.41;100.00;96680.22;5030961;28;105129;-61
2023/03/01 05:21:12;;;;;;;21.33;15.70;;;;;;;0.43;100.00;96681.66;5062577;27;103607;-61
2023/03/01 05:23:40;;;;;;;20.60;16.50;;;;;;;0.55;100.00;96680.19;5030242;28;101867;-61
2023/03/01 05:26:08;;;;;;;24.97;17.33;;;;;;;0.51;100.00;96683.38;5064355;27;105274;-61
2023/03/01 05:28:38;;;;;;;19.93;15.83;;;;;;;0.46;100.00;96685.72;5027135;28;102948;-61
2023/03/01 05:31:09;;;;;;;21.00;16.63;;;;;;;0.44;100.00;96679.88;5031910;28;102681;-61
2023/03/01 05:33:37;;;;;;;20.73;15.70;;;;;;;0.50;100.00;96673.91;5034113;28;105553;-61
2023/03/01 05:36:07;;;;;;;22.77;16.53;;;;;;;0.51;100.00;96683.38;5032927;28;105935;-61
2023/03/01 05:38:34;;;;;;;20.43;16.07;;;;;;;0.26;100.00;96690.66;5033775;28;102505;-61
2023/03/01 05:41:03;;;;;;;22.70;16.47;;;;;;;0.25;100.00;96688.22;5063148;27;105616;-61
2023/03/01 05:43:33;;;;;;;22.20;16.43;;;;;;;0.32;100.00;96689.13;5030661;28;102001;-61
2023/03/01 05:46:02;;;;;;;20.40;15.97;;;;;;;0.16;100.00;96686.69;5030408;28;105250;-61
2023/03/01 05:48:30;;;;;;;21.97;16.03;;;;;;;0.27;100.00;96686.22;5029599;28;105661;-62
2023/03/01 05:51:00;;;;;;;22.73;16.60;;;;;;;0.34;100.00;96687.16;5030107;28;101852;-63
2023/03/01 05:53:27;;;;;;;23.57;16.77;;;;;;;0.34;100.00;96682.72;5030309;28;105166;-63
2023/03/01 05:55:54;;;;;;;22.40;16.43;;;;;;;0.31;100.00;96677.88;5029722;28;103799;-63
2023/03/01 05:58:21;;;;;;;22.70;16.60;;;;;;;0.29;100.00;96679.03;5033702;28;101892;-63
2023/03/01 06:00:49;;;;;;;23.63;16.63;;;;;;;0.29;100.00;96679.84;5029199;28;105839;-62
2023/03/01 06:03:18;;;;;;;22.70;15.87;;;;;;;0.20;100.00;96677.50;5030052;28;101924;-63
2023/03/01 06:05:45;;;;;;;20.70;16.07;;;;;;;0.15;100.00;96680.66;5029943;28;104838;-63
2023/03/01 06:08:12;;;;;;;22.43;16.23;;;;;;;0.27;100.00;96675.78;5029432;28;105150;-63
2023/03/01 06:10:40;;;;;;;24.53;16.33;;;;;;;0.31;100.00;96677.03;5030132;28;101989;-62
2023/03/01 06:13:07;;;;;;;23.30;16.93;;;;;;;0.42;100.00;96673.97;5029995;28;105423;-63
2023/03/01 06:15:34;;;;;;;23.20;16.23;;;;;;;0.37;100.00;96676.31;5029280;28;105567;-63
2023/03/01 06:18:00;;;;;;;21.30;16.17;;;;;;;0.18;100.00;96671.63;5029851;28;101894;-62
2023/03/01 06:20:30;;;;;;;27.17;17.30;;;;;;;0.28;100.00;96666.97;5032449;28;105213;-62
2023/03/01 06:22:57;;;;;;;20.23;16.80;;;;;;;0.31;100.00;96671.81;5029550;28;101941;-62
2023/03/01 06:25:26;;;;;;;22.40;16.57;;;;;;;0.28;100.00;96670.38;5030059;28;105473;-62
2023/03/01 06:27:53;;;;;;;22.37;16.20;;;;;;;0.19;100.00;96673.25;5029215;28;105313;-62
2023/03/01 06:30:22;;;;;;;26.70;17.30;;;;;;;0.16;100.00;96671.00;5031075;27;101793;-62
2023/03/01 06:32:49;;;;;;;21.17;16.87;;;;;;;0.26;100.00;96674.97;5030779;27;102821;-63
2023/03/01 06:35:18;;;;;;;29.17;17.27;;;;;;;0.30;100.00;96670.19;5030841;28;102724;-62
2023/03/01 06:37:46;;;;;;;25.70;17.63;;;;;;;0.27;100.00;96675.78;5029627;28;101975;-62
2023/03/01 06:40:14;;;;;;;22.20;16.17;;;;;;;0.42;100.00;96679.22;5029185;27;105519;-63
2023/03/01 06:42:44;;;;;;;23.13;17.07;;;;;;;0.32;100.00;96682.09;5033848;28;102662;-62
2023/03/01 06:45:12;;;;;;;23.43;18.50;;;;;;;0.36;100.00;96679.94;5031086;27;102341;-63
2023/03/01 06:47:38;;;;;;;27.47;18.37;;;;;;;0.33;100.00;96685.53;5029903;27;103123;-62
2023/03/01 06:50:06;;;;;;;22.77;17.40;;;;;;;0.32;100.00;96678.66;5030944;28;101841;-62
2023/03/01 06:52:33;;;;;;;24.33;17.27;;;;;;;0.41;100.00;96674.97;5030406;28;102405;-62
2023/03/01 06:55:02;;;;;;;23.67;17.50;;;;;;;0.36;100.00;96680.75;5030144;27;102708;-62
2023/03/01 06:57:29;;;;;;;23.60;17.70;;;;;;;0.41;100.00;96677.59;5030582;27;101806;-62
2023/03/01 06:59:56;;;;;;;22.23;16.97;;;;;;;0.40;100.00;96673.38;5030255;27;102318;-62
2023/03/01 07:02:24;;;;;;;28.20;18.30;;;;;;;0.39;100.00;96682.22;5029993;28;102819;-62
2023/03/01 07:04:51;;;;;;;22.23;16.20;;;;;;;0.42;100.00;96684.44;5033919;28;101835;-62
2023/03/01 07:07:19;;;;;;;24.70;17.40;;;;;;;0.47;100.00;96682.94;5028578;28;104057;-62
2023/03/01 07:09:46;;;;;;;25.07;17.00;;;;;;;0.58;100.00;96682.47;5029037;28;101866;-62
2023/03/01 07:12:14;;;;;;;22.93;17.63;;;;;;;0.75;100.00;96680.44;5028899;28;103581;-62
2023/03/01 07:14:41;;;;;;;23.27;17.93;;;;;;;0.77;100.00;96683.72;5045674;27;105703;-62
2023/03/01 07:17:08;;;;;;;23.60;17.90;;;;;;;0.84;100.00;96681.97;5028834;28;101873;-62
2023/03/01 07:19:35;;;;;;;23.57;17.60;;;;;;;0.81;100.00;96680.53;5028580;28;105237;-62
2023/03/01 07:22:04;;;;;;;23.47;17.43;;;;;;;0.66;100.00;96684.19;5028545;28;105479;-62
2023/03/01 07:24:31;;;;;;;22.10;17.67;;;;;;;0.57;100.00;96683.47;5055806;27;101971;-66
2023/03/01 07:27:00;;;;;;;24.07;17.70;;;;;;;0.47;100.00;96687.34;5029084;27;105701;-70
2023/03/01 07:29:29;;;;;;;23.73;17.63;;;;;;;0.62;100.00;96688.16;5058066;27;102511;-61
2023/03/01 07:31:57;;;;;;;22.90;17.53;;;;;;;0.78;100.00;96690.56;5042023;27;106376;-71
2023/03/01 07:35:06;;;;;;;24.17;17.43;;;;;;;0.79;100.00;96692.19;5009714;28;102787;-66
2023/03/01 07:37:33;;;;;;;24.13;17.53;;;;;;;0.82;100.00;96689.22;5016991;28;102067;-62
2023/03/01 07:40:00;;;;;;;23.87;18.13;;;;;;;0.94;100.00;96685.94;5028338;28;105158;-61
2023/03/01 07:42:27;;;;;;;22.50;16.43;;;;;;;0.88;100.00;96681.44;5027706;28;105657;-60
2023/03/01 07:44:55;;;;;;;23.00;18.20;;;;;;;0.78;100.00;96677.47;5027641;28;101914;-56
2023/03/01 07:47:22;;;;;;;22.70;17.57;;;;;;;0.78;100.00;96678.28;5028316;28;104784;-63
2023/03/01 07:49:49;;;;;;;25.47;18.47;;;;;;;0.79;100.00;96676.47;5030897;28;102902;-61
2023/03/01 07:52:17;;;;;;;23.63;17.43;;;;;;;0.94;100.00;96679.91;5027093;28;105698;-61
2023/03/01 07:54:55;;;;;;;25.07;16.87;;;;;;;1.09;100.00;96672.81;5027601;28;105402;-61
2023/03/01 07:57:23;;;;;;;24.87;17.93;;;;;;;1.02;100.00;96669.31;5024598;28;103127;-61
2023/03/01 07:59:50;;;;;;;25.23;17.60;;;;;;;1.11;100.00;96670.81;5007884;28;105443;-61
2023/03/01 08:02:19;;;;;;;24.73;18.50;;;;;;;1.32;100.00;96668.22;5040957;27;104801;-61
2023/03/01 08:04:47;;;;;;;24.77;18.83;;;;;;;1.11;100.00;96663.75;5009378;28;102090;-61
2023/03/01 08:07:14;;;;;;;26.27;19.67;;;;;;;1.16;100.00;96666.63;5027751;28;105758;-61
2023/03/01 08:09:41;;;;;;;24.00;18.23;;;;;;;1.37;100.00;96660.63;5030892;28;105360;-63
2023/03/01 08:12:08;;;;;;;24.50;19.13;;;;;;;1.59;100.00;96662.25;5027748;28;105519;-60
2023/03/01 08:14:41;;;;;;;23.80;18.13;;;;;;;1.67;100.00;96647.19;5028869;28;103174;-60
2023/03/01 08:17:08;;;;;;;24.07;17.60;;;;;;;1.93;100.00;96650.03;5018904;28;101803;-60
2023/03/01 08:19:37;;;;;;;28.53;19.00;;;;;;;1.88;100.00;96644.56;5007693;28;104871;-60
2023/03/01 08:22:04;;;;;;;24.40;17.53;;;;;;;1.75;100.00;96644.44;5008389;28;102509;-62
2023/03/01 08:24:40;;;;;;;23.23;17.23;;;;;;;1.94;100.00;96649.03;5007878;28;101889;-62
2023/03/01 08:27:07;;;;;;;26.63;18.47;;;;;;;1.94;100.00;96649.03;5019555;28;102308;-62
2023/03/01 08:29:34;;;;;;;26.20;19.03;;;;;;;1.87;100.00;96649.97;5027155;28;105162;-60
2023/03/01 08:32:01;;;;;;;25.40;19.03;;;;;;;2.09;100.00;96651.56;5027760;28;102361;-60
2023/03/01 08:34:35;;;;;;;28.90;19.97;;;;;;;2.08;100.00;96647.31;5040894;27;105097;-62
2023/03/01 08:37:03;;;;;;;24.70;18.37;;;;;;;2.08;100.00;96649.94;5026500;28;101831;-61
2023/03/01 08:39:30;;;;;;;26.10;19.63;;;;;;;2.30;100.00;96651.50;5028053;28;103317;-60
2023/03/01 08:41:59;;;;;;;24.67;19.03;;;;;;;2.45;100.00;96644.28;5023333;28;105701;-66
2023/03/01 08:44:50;;;;;;;26.10;19.07;;;;;;;2.52;100.00;96643.31;5007383;28;101944;-63
2023/03/01 08:47:18;;;;;;;26.10;18.73;;;;;;;2.69;100.00;96646.44;5007172;28;106094;-61
2023/03/01 08:49:45;;;;;;;27.47;19.63;;;;;;;2.89;100.00;96644.72;5007107;28;103680;-64
2023/03/01 08:52:14;;;;;;;24.80;19.03;;;;;;;2.84;100.00;96644.50;5007220;28;101993;-65
2023/03/01 08:55:08;;;;;;;30.87;19.57;;;;;;;3.13;100.00;96637.13;5043738;27;105984;-63
2023/03/01 08:57:35;;;;;;;25.50;18.53;;;;;;;3.38;100.00;96637.38;5041011;27;101945;-64
2023/03/01 09:00:08;;;;;;;26.53;19.07;;;;;;;3.52;100.00;96631.13;5007098;28;105531;-64
2023/03/01 09:02:43;;;;;;;24.37;18.90;;;;;;;3.52;100.00;96626.69;5006979;28;104083;-76
2023/03/01 09:05:10;;;;;;;26.47;19.47;;;;;;;3.61;100.00;96622.03;5011501;28;102042;-65
2023/03/01 09:07:39;;;;;;;24.00;18.67;;;;;;;3.88;100.00;96623.66;5029604;28;105321;-63
2023/03/01 09:10:07;;;;;;;23.70;18.10;;;;;;;3.82;100.00;96617.38;5026969;28;105251;-66
2023/03/01 09:13:06;;;;;;;23.70;18.67;;;;;;;3.92;100.00;96611.72;5028020;28;103471;-70
2023/03/01 09:15:34;;;;;;;22.00;18.10;;;;;;;3.80;100.00;96613.34;5030682;28;105517;-64
2023/03/01 09:18:02;;;;;;;27.27;20.27;;;;;;;3.69;100.00;96613.94;5034859;27;102838;-66
2023/03/01 09:20:30;;;;;;;23.23;18.27;;;;;;;3.82;100.00;96613.97;5030481;28;105652;-76
2023/03/01 09:23:09;;;;;;;26.77;17.97;;;;;;;3.94;100.00;96613.13;5031500;28;102859;-70
2023/03/01 09:25:37;;;;;;;28.33;18.73;;;;;;;4.16;100.00;96613.72;5030436;28;101928;-68
2023/03/01 09:28:04;;;;;;;24.20;18.30;;;;;;;4.10;100.00;96614.53;5030607;28;105197;-62
2023/03/01 09:30:31;;;;;;;26.40;18.37;;;;;;;3.92;100.00;96617.78;5026391;28;105359;-62
2023/03/01 09:33:00;;;;;;;24.57;18.47;;;;;;;3.77;100.00;96619.81;5017034;28;101960;-62
2023/03/01 09:35:27;;;;;;;23.10;18.87;;;;;;;3.86;100.00;96620.41;5030337;28;105182;-61
2023/03/01 09:37:54;;;;;;;25.50;18.30;;;;;;;3.87;100.00;96614.16;5029964;28;105559;-67
2023/03/01 09:40:31;;;;;;;24.40;18.67;;;;;;;3.82;100.00;96617.38;5033313;28;102016;-70
2023/03/01 09:43:34;;;;;;;22.30;18.20;;;;;;;4.11;100.00;96606.44;5029759;28;104275;-64
2023/03/01 09:46:07;;;;;;;26.17;18.13;;;;;;;4.23;100.00;96606.63;4937734;28;102080;-62
2023/03/01 09:48:42;;;;;;;22.47;17.63;;;;;;;4.35;100.00;96610.22;4933240;28;105723;-65
2023/03/01 09:51:15;;;;;;;23.63;17.90;;;;;;;4.18;100.00;96612.50;4965562;28;105035;-72
2023/03/01 09:54:10;;;;;;;23.20;17.77;;;;;;;4.34;100.00;96619.16;4933410;28;102461;-72
2023/03/01 09:56:44;;;;;;;24.37;19.13;;;;;;;4.00;100.00;96612.34;4958266;28;105369;-70
2023/03/01 09:59:24;;;;;;;25.80;19.10;;;;;;;4.00;100.00;96619.41;4932465;28;105490;-71
2023/03/01 10:02:00;;;;;;;23.13;17.97;;;;;;;4.26;100.00;96624.66;4953129;28;103309;-65
2023/03/01 10:04:55;;;;;;;21.33;16.43;;;;;;;4.42;100.00;96618.94;4932941;28;105516;-64
2023/03/01 10:07:32;;;;;;;21.97;18.00;;;;;;;4.70;100.00;96624.72;4931537;28;102023;-67
2023/03/01 10:10:03;;;;;;;20.20;16.57;;;;;;;4.61;100.00;96618.88;4932750;28;105287;-62
2023/03/01 10:12:44;;;;;;;21.97;16.77;;;;;;;4.60;100.00;96632.25;4932409;28;105684;-74
2023/03/01 10:15:27;;;;;;;19.67;15.93;;;;;;;4.81;100.00;96624.06;4948984;28;102257;-66
2023/03/01 10:17:57;;;;;;;19.30;15.43;;;;;;;4.56;100.00;96612.59;4933019;28;105539;-66
2023/03/01 10:20:27;;;;;;;20.37;16.17;;;;;;;4.71;100.00;96608.72;4932611;28;107010;-66
2023/03/01 10:23:05;;;;;;;19.70;16.00;;;;;;;4.41;100.00;96602.31;4958245;28;102315;-65
2023/03/01 10:25:48;;;;;;;18.10;14.97;;;;;;;4.96;100.00;96598.28;5028887;28;105526;-67
2023/03/01 10:28:26;;;;;;;22.77;15.93;;;;;;;4.79;100.00;96600.56;5030027;28;101794;-71
2023/03/01 10:30:53;;;;;;;21.13;15.97;;;;;;;4.63;100.00;96595.78;5029459;28;105186;-63
2023/03/01 10:33:27;;;;;;;19.53;15.93;;;;;;;5.08;100.00;96594.75;5029094;28;105071;-68
2023/03/01 10:35:55;;;;;;;21.10;17.20;;;;;;;4.85;100.00;96588.41;5029427;28;101924;-65
2023/03/01 10:38:23;;;;;;;21.10;16.00;;;;;;;5.17;100.00;96576.84;5029336;28;104027;-68
2023/03/01 10:40:53;;;;;;;21.87;16.87;;;;;;;5.01;100.00;96566.81;5027618;28;105881;-67
2023/03/01 10:43:32;;;;;;;20.27;16.53;;;;;;;4.67;100.00;96568.00;5029320;28;101821;-64
2023/03/01 10:45:59;;;;;;;23.40;16.33;;;;;;;4.26;100.00;96566.75;5029201;28;103601;-62
2023/03/01 10:48:28;;;;;;;20.60;16.80;;;;;;;4.75;100.00;96561.69;5032527;28;105215;-62
2023/03/01 10:51:08;;;;;;;20.80;16.27;;;;;;;4.85;100.00;96562.06;5029295;28;105731;-63
2023/03/01 10:53:42;;;;;;;20.10;16.47;;;;;;;4.80;100.00;96554.75;5030318;28;103282;-63
2023/03/01 10:56:11;;;;;;;19.27;16.10;;;;;;;4.91;100.00;96548.03;5012605;28;102075;-62
2023/03/01 10:58:42;;;;;;;20.37;15.97;;;;;;;5.05;100.00;96554.84;5029246;28;104528;-62
2023/03/01 11:01:27;;;;;;;19.27;14.70;;;;;;;5.02;100.00;96550.00;5028631;28;104624;-63
2023/03/01 11:04:16;;;;;;;17.20;14.00;;;;;;;5.42;100.00;96554.81;5028996;28;102177;-65
2023/03/01 11:06:44;;;;;;;16.27;13.87;;;;;;;5.33;100.00;96552.63;5024544;28;105210;-62
2023/03/01 11:09:17;;;;;;;20.93;14.70;;;;;;;5.74;100.00;96540.50;5028252;28;105728;-63
2023/03/01 11:11:46;;;;;;;21.13;15.40;;;;;;;5.80;100.00;96534.44;5032357;28;101823;-68
2023/03/01 11:14:47;;;;;;;17.40;14.50;;;;;;;5.62;100.00;96526.41;5028387;28;105720;-64
2023/03/01 11:17:18;;;;;;;18.00;14.37;;;;;;;5.69;100.00;96519.28;5028941;28;102028;-61
2023/03/01 11:20:01;;;;;;;18.53;15.00;;;;;;;5.58;100.00;96516.53;5020183;28;105016;-60
2023/03/01 11:22:29;;;;;;;19.27;15.37;;;;;;;5.33;100.00;96515.72;5024943;28;106194;-63
2023/03/01 11:24:58;;;;;;;20.03;16.40;;;;;;;5.28;100.00;96515.53;5028502;28;101865;-69
2023/03/01 11:27:29;;;;;;;19.67;15.77;;;;;;;5.10;100.00;96508.38;5061589;27;105676;-69